sensor_id;sensor_type;location;lat;lon;timestamp;temperature;humidity
48686;DHT22;34485;51.536;3.816;2022-11-30T00:04:24;7.50;99.90
48686;DHT22;34485;51.536;3.816;2022-11-30T00:06:49;7.30;99.90
48686;DHT22;34485;51.536;3.816;2022-11-30T00:09:15;7.20;99.90
48686;DHT22;34485;51.536;3.816;2022-11-30T00:11:40;7.30;99.90
48686;DHT22;34485;51.536;3.816;2022-11-30T00:14:06;7.20;99.90
48686;DHT22;34485;51.536;3.816;2022-11-30T00:48:18;7.40;99.90
48686;DHT22;34485;51.536;3.816;2022-11-30T00:50:43;7.30;99.90
48686;DHT22;34485;51.536;3.816;2022-11-30T00:53:09;7.20;99.90
48686;DHT22;34485;51.536;3.816;2022-11-30T00:58:01;7.30;99.90
48686;DHT22;34485;51.536;3.816;2022-11-30T01:00:27;7.20;99.90
48686;DHT22;34485;51.536;3.816;2022-11-30T01:02:54;7.20;99.90
48686;DHT22;34485;51.536;3.816;2022-11-30T01:05:20;7.20;99.90
48686;DHT22;34485;51.536;3.816;2022-11-30T01:07:46;7.20;99.90
48686;DHT22;34485;51.536;3.816;2022-11-30T01:10:11;7.20;99.90
48686;DHT22;34485;51.536;3.816;2022-11-30T01:12:37;7.30;99.90
48686;DHT22;34485;51.536;3.816;2022-11-30T01:15:03;7.30;99.90
48686;DHT22;34485;51.536;3.816;2022-11-30T01:17:28;7.20;99.90
48686;DHT22;34485;51.536;3.816;2022-11-30T01:19:54;7.20;99.90
48686;DHT22;34485;51.536;3.816;2022-11-30T01:22:20;7.20;99.90
48686;DHT22;34485;51.536;3.816;2022-11-30T01:24:45;7.30;99.90
48686;DHT22;34485;51.536;3.816;2022-11-30T01:27:11;7.20;99.90
48686;DHT22;34485;51.536;3.816;2022-11-30T01:29:36;7.20;99.90
48686;DHT22;34485;51.536;3.816;2022-11-30T01:32:02;7.20;99.90
48686;DHT22;34485;51.536;3.816;2022-11-30T01:34:28;7.20;99.90
48686;DHT22;34485;51.536;3.816;2022-11-30T01:36:53;7.20;99.90
48686;DHT22;34485;51.536;3.816;2022-11-30T01:39:19;7.20;99.90
48686;DHT22;34485;51.536;3.816;2022-11-30T01:41:44;7.20;99.90
48686;DHT22;34485;51.536;3.816;2022-11-30T01:46:45;7.20;99.90
48686;DHT22;34485;51.536;3.816;2022-11-30T01:49:34;7.20;99.90
48686;DHT22;34485;51.536;3.816;2022-11-30T01:52:09;7.10;99.90
48686;DHT22;34485;51.536;3.816;2022-11-30T01:55:07;7.20;99.90
48686;DHT22;34485;51.536;3.816;2022-11-30T02:00:43;7.10;99.90
48686;DHT22;34485;51.536;3.816;2022-11-30T02:05:59;7.10;99.90
48686;DHT22;34485;51.536;3.816;2022-11-30T02:08:26;7.10;99.90
48686;DHT22;34485;51.536;3.816;2022-11-30T02:10:54;7.10;99.90
48686;DHT22;34485;51.536;3.816;2022-11-30T02:19:04;7.10;99.90
48686;DHT22;34485;51.536;3.816;2022-11-30T02:26:53;7.10;99.90
48686;DHT22;34485;51.536;3.816;2022-11-30T02:29:53;7.20;99.90
48686;DHT22;34485;51.536;3.816;2022-11-30T02:32:27;7.10;99.90
48686;DHT22;34485;51.536;3.816;2022-11-30T02:34:57;7.20;99.90
48686;DHT22;34485;51.536;3.816;2022-11-30T02:37:23;7.10;99.90
48686;DHT22;34485;51.536;3.816;2022-11-30T02:39:50;7.10;99.90
48686;DHT22;34485;51.536;3.816;2022-11-30T02:42:15;7.10;99.90
48686;DHT22;34485;51.536;3.816;2022-11-30T02:44:45;7.20;99.90
48686;DHT22;34485;51.536;3.816;2022-11-30T02:49:55;7.20;99.90
48686;DHT22;34485;51.536;3.816;2022-11-30T02:52:25;7.20;99.90
48686;DHT22;34485;51.536;3.816;2022-11-30T02:54:52;7.10;99.90
48686;DHT22;34485;51.536;3.816;2022-11-30T02:57:18;7.10;99.90
48686;DHT22;34485;51.536;3.816;2022-11-30T02:59:44;7.10;99.90
48686;DHT22;34485;51.536;3.816;2022-11-30T03:02:09;7.10;99.90
48686;DHT22;34485;51.536;3.816;2022-11-30T03:04:35;7.20;99.90
48686;DHT22;34485;51.536;3.816;2022-11-30T03:07:00;7.10;99.90
48686;DHT22;34485;51.536;3.816;2022-11-30T03:09:26;7.10;99.90
48686;DHT22;34485;51.536;3.816;2022-11-30T03:11:52;7.20;99.90
48686;DHT22;34485;51.536;3.816;2022-11-30T03:14:17;7.10;99.90
48686;DHT22;34485;51.536;3.816;2022-11-30T03:16:43;7.20;99.90
48686;DHT22;34485;51.536;3.816;2022-11-30T03:19:09;7.10;99.90
48686;DHT22;34485;51.536;3.816;2022-11-30T03:21:34;7.20;99.90
48686;DHT22;34485;51.536;3.816;2022-11-30T03:24:00;7.20;99.90
48686;DHT22;34485;51.536;3.816;2022-11-30T03:26:25;7.10;99.90
48686;DHT22;34485;51.536;3.816;2022-11-30T03:28:51;7.10;99.90
48686;DHT22;34485;51.536;3.816;2022-11-30T03:31:17;7.10;99.90
48686;DHT22;34485;51.536;3.816;2022-11-30T03:33:43;7.10;99.90
48686;DHT22;34485;51.536;3.816;2022-11-30T03:36:10;7.10;99.90
48686;DHT22;34485;51.536;3.816;2022-11-30T03:38:36;7.20;99.90
48686;DHT22;34485;51.536;3.816;2022-11-30T03:41:05;7.10;99.90
48686;DHT22;34485;51.536;3.816;2022-11-30T03:43:31;7.10;99.90
48686;DHT22;34485;51.536;3.816;2022-11-30T03:45:56;7.20;99.90
48686;DHT22;34485;51.536;3.816;2022-11-30T03:48:23;7.10;99.90
48686;DHT22;34485;51.536;3.816;2022-11-30T03:50:48;7.10;99.90
48686;DHT22;34485;51.536;3.816;2022-11-30T03:53:18;7.20;99.90
48686;DHT22;34485;51.536;3.816;2022-11-30T03:55:44;7.20;99.90
48686;DHT22;34485;51.536;3.816;2022-11-30T03:58:10;7.20;99.90
48686;DHT22;34485;51.536;3.816;2022-11-30T04:00:37;7.20;99.90
48686;DHT22;34485;51.536;3.816;2022-11-30T04:03:02;7.20;99.90
48686;DHT22;34485;51.536;3.816;2022-11-30T04:05:28;7.10;99.90
48686;DHT22;34485;51.536;3.816;2022-11-30T04:07:54;7.10;99.90
48686;DHT22;34485;51.536;3.816;2022-11-30T04:10:19;7.10;99.90
48686;DHT22;34485;51.536;3.816;2022-11-30T04:12:45;7.10;99.90
48686;DHT22;34485;51.536;3.816;2022-11-30T04:15:11;7.10;99.90
48686;DHT22;34485;51.536;3.816;2022-11-30T04:17:36;7.10;99.90
48686;DHT22;34485;51.536;3.816;2022-11-30T04:20:03;7.10;99.90
48686;DHT22;34485;51.536;3.816;2022-11-30T04:22:29;7.10;99.90
48686;DHT22;34485;51.536;3.816;2022-11-30T04:24:54;7.10;99.90
48686;DHT22;34485;51.536;3.816;2022-11-30T04:27:20;7.10;99.90
48686;DHT22;34485;51.536;3.816;2022-11-30T04:29:45;7.10;99.90
48686;DHT22;34485;51.536;3.816;2022-11-30T04:32:11;7.10;99.90
48686;DHT22;34485;51.536;3.816;2022-11-30T04:34:37;7.10;99.90
48686;DHT22;34485;51.536;3.816;2022-11-30T04:37:02;7.10;99.90
48686;DHT22;34485;51.536;3.816;2022-11-30T04:39:28;7.10;99.90
48686;DHT22;34485;51.536;3.816;2022-11-30T04:41:53;7.10;99.90
48686;DHT22;34485;51.536;3.816;2022-11-30T04:44:19;7.10;99.90
48686;DHT22;34485;51.536;3.816;2022-11-30T04:46:44;7.10;99.90
48686;DHT22;34485;51.536;3.816;2022-11-30T04:49:10;7.20;99.90
48686;DHT22;34485;51.536;3.816;2022-11-30T04:51:36;7.20;99.90
48686;DHT22;34485;51.536;3.816;2022-11-30T04:54:01;7.20;99.90
48686;DHT22;34485;51.536;3.816;2022-11-30T04:56:27;7.20;99.90
48686;DHT22;34485;51.536;3.816;2022-11-30T04:58:52;7.10;99.90
48686;DHT22;34485;51.536;3.816;2022-11-30T05:01:18;7.10;99.90
48686;DHT22;34485;51.536;3.816;2022-11-30T05:03:43;7.10;99.90
48686;DHT22;34485;51.536;3.816;2022-11-30T05:06:09;7.10;99.90
48686;DHT22;34485;51.536;3.816;2022-11-30T05:37:51;5.70;99.90
48686;DHT22;34485;51.536;3.816;2022-11-30T05:40:17;7.10;99.90
48686;DHT22;34485;51.536;3.816;2022-11-30T05:42:43;7.00;99.90
48686;DHT22;34485;51.536;3.816;2022-11-30T05:45:09;7.00;99.90
48686;DHT22;34485;51.536;3.816;2022-11-30T05:47:34;7.00;99.90
48686;DHT22;34485;51.536;3.816;2022-11-30T05:50:00;7.00;99.90
48686;DHT22;34485;51.536;3.816;2022-11-30T05:59:43;7.00;99.90
48686;DHT22;34485;51.536;3.816;2022-11-30T06:04:35;6.90;99.90
48686;DHT22;34485;51.536;3.816;2022-11-30T06:11:53;6.70;99.90
48686;DHT22;34485;51.536;3.816;2022-11-30T06:14:19;6.80;99.90
48686;DHT22;34485;51.536;3.816;2022-11-30T06:16:45;6.80;99.90
48686;DHT22;34485;51.536;3.816;2022-11-30T06:19:10;6.70;99.90
48686;DHT22;34485;51.536;3.816;2022-11-30T06:21:36;6.70;99.90
48686;DHT22;34485;51.536;3.816;2022-11-30T06:24:02;6.60;99.90
48686;DHT22;34485;51.536;3.816;2022-11-30T06:26:27;6.50;99.90
48686;DHT22;34485;51.536;3.816;2022-11-30T06:28:53;6.40;99.90
48686;DHT22;34485;51.536;3.816;2022-11-30T06:31:18;6.50;99.90
48686;DHT22;34485;51.536;3.816;2022-11-30T06:33:44;6.50;99.90
48686;DHT22;34485;51.536;3.816;2022-11-30T06:36:10;6.40;99.90
48686;DHT22;34485;51.536;3.816;2022-11-30T06:38:36;6.40;99.90
48686;DHT22;34485;51.536;3.816;2022-11-30T06:41:07;6.40;99.90
48686;DHT22;34485;51.536;3.816;2022-11-30T06:48:27;6.20;99.90
48686;DHT22;34485;51.536;3.816;2022-11-30T06:50:53;6.00;99.90
48686;DHT22;34485;51.536;3.816;2022-11-30T06:53:18;6.10;99.90
48686;DHT22;34485;51.536;3.816;2022-11-30T06:55:44;5.90;99.90
48686;DHT22;34485;51.536;3.816;2022-11-30T06:58:10;5.90;99.90
48686;DHT22;34485;51.536;3.816;2022-11-30T07:00:36;5.90;99.90
48686;DHT22;34485;51.536;3.816;2022-11-30T07:03:02;5.90;99.90
48686;DHT22;34485;51.536;3.816;2022-11-30T07:05:29;5.80;99.90
48686;DHT22;34485;51.536;3.816;2022-11-30T07:07:56;5.80;99.90
48686;DHT22;34485;51.536;3.816;2022-11-30T07:10:22;5.80;99.90
48686;DHT22;34485;51.536;3.816;2022-11-30T07:12:48;5.90;99.90
48686;DHT22;34485;51.536;3.816;2022-11-30T07:15:14;6.00;99.90
48686;DHT22;34485;51.536;3.816;2022-11-30T07:17:40;6.00;99.90
48686;DHT22;34485;51.536;3.816;2022-11-30T07:20:06;6.00;99.90
48686;DHT22;34485;51.536;3.816;2022-11-30T07:22:31;6.00;99.90
48686;DHT22;34485;51.536;3.816;2022-11-30T07:24:57;5.90;99.90
48686;DHT22;34485;51.536;3.816;2022-11-30T07:27:41;5.90;99.90
48686;DHT22;34485;51.536;3.816;2022-11-30T07:30:07;5.80;99.90
48686;DHT22;34485;51.536;3.816;2022-11-30T07:32:33;5.70;99.90
48686;DHT22;34485;51.536;3.816;2022-11-30T07:34:59;5.60;99.90
48686;DHT22;34485;51.536;3.816;2022-11-30T07:37:24;5.50;99.90
48686;DHT22;34485;51.536;3.816;2022-11-30T07:39:50;5.50;99.90
48686;DHT22;34485;51.536;3.816;2022-11-30T07:42:16;5.40;99.90
48686;DHT22;34485;51.536;3.816;2022-11-30T07:44:42;5.30;99.90
48686;DHT22;34485;51.536;3.816;2022-11-30T07:47:07;5.20;99.90
48686;DHT22;34485;51.536;3.816;2022-11-30T07:49:33;5.20;99.90
48686;DHT22;34485;51.536;3.816;2022-11-30T07:51:59;5.30;99.90
48686;DHT22;34485;51.536;3.816;2022-11-30T07:54:24;5.20;99.90
48686;DHT22;34485;51.536;3.816;2022-11-30T07:56:50;5.30;99.90
48686;DHT22;34485;51.536;3.816;2022-11-30T07:59:16;5.30;99.90
48686;DHT22;34485;51.536;3.816;2022-11-30T08:01:41;5.30;99.90
48686;DHT22;34485;51.536;3.816;2022-11-30T08:04:07;5.40;99.90
48686;DHT22;34485;51.536;3.816;2022-11-30T08:06:33;5.40;99.90
48686;DHT22;34485;51.536;3.816;2022-11-30T08:09:00;5.40;99.90
48686;DHT22;34485;51.536;3.816;2022-11-30T08:11:30;5.50;99.90
48686;DHT22;34485;51.536;3.816;2022-11-30T08:13:57;5.60;99.90
48686;DHT22;34485;51.536;3.816;2022-11-30T08:16:25;5.60;99.90
48686;DHT22;34485;51.536;3.816;2022-11-30T08:18:51;5.70;99.90
48686;DHT22;34485;51.536;3.816;2022-11-30T08:21:19;5.70;99.90
48686;DHT22;34485;51.536;3.816;2022-11-30T08:23:47;5.70;99.90
48686;DHT22;34485;51.536;3.816;2022-11-30T08:26:15;5.60;99.90
48686;DHT22;34485;51.536;3.816;2022-11-30T08:28:42;5.60;99.90
48686;DHT22;34485;51.536;3.816;2022-11-30T08:31:11;5.50;99.90
48686;DHT22;34485;51.536;3.816;2022-11-30T08:33:37;5.50;99.90
48686;DHT22;34485;51.536;3.816;2022-11-30T08:36:15;5.50;99.90
48686;DHT22;34485;51.536;3.816;2022-11-30T08:38:41;5.60;99.90
48686;DHT22;34485;51.536;3.816;2022-11-30T08:41:09;5.70;99.90
48686;DHT22;34485;51.536;3.816;2022-11-30T08:43:35;5.80;99.90
48686;DHT22;34485;51.536;3.816;2022-11-30T08:46:02;5.90;99.90
48686;DHT22;34485;51.536;3.816;2022-11-30T08:48:28;6.00;99.90
48686;DHT22;34485;51.536;3.816;2022-11-30T08:50:54;6.00;99.90
48686;DHT22;34485;51.536;3.816;2022-11-30T08:53:22;6.10;99.90
48686;DHT22;34485;51.536;3.816;2022-11-30T08:58:25;6.30;99.90
48686;DHT22;34485;51.536;3.816;2022-11-30T09:30:03;7.00;99.90
48686;DHT22;34485;51.536;3.816;2022-11-30T09:32:29;7.00;99.90
48686;DHT22;34485;51.536;3.816;2022-11-30T09:34:55;7.00;99.90
48686;DHT22;34485;51.536;3.816;2022-11-30T09:37:20;7.00;99.90
48686;DHT22;34485;51.536;3.816;2022-11-30T09:39:46;7.20;99.90
48686;DHT22;34485;51.536;3.816;2022-11-30T09:42:25;7.20;99.90
48686;DHT22;34485;51.536;3.816;2022-11-30T09:50:40;7.20;99.90
48686;DHT22;34485;51.536;3.816;2022-11-30T09:53:35;7.30;99.90
48686;DHT22;34485;51.536;3.816;2022-11-30T09:55:58;7.40;99.90
48686;DHT22;34485;51.536;3.816;2022-11-30T09:58:34;7.20;99.90
48686;DHT22;34485;51.536;3.816;2022-11-30T10:01:00;7.10;99.90
48686;DHT22;34485;51.536;3.816;2022-11-30T10:03:26;7.20;99.90
48686;DHT22;34485;51.536;3.816;2022-11-30T10:05:58;7.30;99.90
48686;DHT22;34485;51.536;3.816;2022-11-30T10:08:38;7.30;99.90
48686;DHT22;34485;51.536;3.816;2022-11-30T10:14:26;7.30;99.90
48686;DHT22;34485;51.536;3.816;2022-11-30T10:26:55;7.50;99.90
48686;DHT22;34485;51.536;3.816;2022-11-30T10:29:33;7.60;99.90
48686;DHT22;34485;51.536;3.816;2022-11-30T10:32:15;7.60;99.90
48686;DHT22;34485;51.536;3.816;2022-11-30T10:34:43;7.60;99.90
48686;DHT22;34485;51.536;3.816;2022-11-30T10:37:25;7.60;99.90
48686;DHT22;34485;51.536;3.816;2022-11-30T10:40:09;7.70;99.90
48686;DHT22;34485;51.536;3.816;2022-11-30T10:42:45;7.80;99.90
48686;DHT22;34485;51.536;3.816;2022-11-30T10:45:14;7.80;99.90
48686;DHT22;34485;51.536;3.816;2022-11-30T10:48:11;7.80;99.90
48686;DHT22;34485;51.536;3.816;2022-11-30T10:50:39;7.90;99.90
48686;DHT22;34485;51.536;3.816;2022-11-30T10:53:05;7.90;99.90
48686;DHT22;34485;51.536;3.816;2022-11-30T10:55:38;7.90;99.90
48686;DHT22;34485;51.536;3.816;2022-11-30T10:58:25;8.00;99.90
48686;DHT22;34485;51.536;3.816;2022-11-30T11:01:07;8.20;99.90
48686;DHT22;34485;51.536;3.816;2022-11-30T11:03:34;8.20;99.90
48686;DHT22;34485;51.536;3.816;2022-11-30T11:06:20;8.30;99.90
48686;DHT22;34485;51.536;3.816;2022-11-30T11:08:47;8.20;99.90
48686;DHT22;34485;51.536;3.816;2022-11-30T11:11:34;8.20;99.90
48686;DHT22;34485;51.536;3.816;2022-11-30T11:16:52;7.90;99.90
48686;DHT22;34485;51.536;3.816;2022-11-30T11:19:39;7.90;99.90
48686;DHT22;34485;51.536;3.816;2022-11-30T11:22:20;7.90;99.90
48686;DHT22;34485;51.536;3.816;2022-11-30T11:24:47;8.10;99.90
48686;DHT22;34485;51.536;3.816;2022-11-30T11:27:24;8.30;99.90
48686;DHT22;34485;51.536;3.816;2022-11-30T11:30:26;8.40;99.90
48686;DHT22;34485;51.536;3.816;2022-11-30T11:38:20;8.80;99.90
48686;DHT22;34485;51.536;3.816;2022-11-30T11:41:01;8.90;99.90
48686;DHT22;34485;51.536;3.816;2022-11-30T11:43:33;9.00;99.90
48686;DHT22;34485;51.536;3.816;2022-11-30T11:46:10;9.00;99.90
48686;DHT22;34485;51.536;3.816;2022-11-30T11:48:43;9.00;99.90
48686;DHT22;34485;51.536;3.816;2022-11-30T11:56:09;9.30;99.90
48686;DHT22;34485;51.536;3.816;2022-11-30T11:59:00;9.30;99.90
48686;DHT22;34485;51.536;3.816;2022-11-30T12:01:54;9.40;99.90
48686;DHT22;34485;51.536;3.816;2022-11-30T12:04:31;9.50;99.90
48686;DHT22;34485;51.536;3.816;2022-11-30T12:07:02;9.50;99.90
48686;DHT22;34485;51.536;3.816;2022-11-30T12:14:25;9.80;99.90
48686;DHT22;34485;51.536;3.816;2022-11-30T12:45:51;9.50;99.90
48686;DHT22;34485;51.536;3.816;2022-11-30T12:51:04;9.40;99.90
48686;DHT22;34485;51.536;3.816;2022-11-30T12:57:07;9.70;99.90
48686;DHT22;34485;51.536;3.816;2022-11-30T12:59:27;9.80;99.90
48686;DHT22;34485;51.536;3.816;2022-11-30T13:04:58;9.90;99.90
48686;DHT22;34485;51.536;3.816;2022-11-30T13:07:29;9.90;99.90
48686;DHT22;34485;51.536;3.816;2022-11-30T13:12:38;9.90;99.90
48686;DHT22;34485;51.536;3.816;2022-11-30T13:15:13;9.90;99.90
48686;DHT22;34485;51.536;3.816;2022-11-30T13:17:41;9.90;99.90
48686;DHT22;34485;51.536;3.816;2022-11-30T13:20:27;9.90;99.90
48686;DHT22;34485;51.536;3.816;2022-11-30T13:26:05;10.00;99.90
48686;DHT22;34485;51.536;3.816;2022-11-30T13:31:25;10.10;99.90
48686;DHT22;34485;51.536;3.816;2022-11-30T13:42:08;10.20;99.90
48686;DHT22;34485;51.536;3.816;2022-11-30T13:44:34;10.20;99.90
48686;DHT22;34485;51.536;3.816;2022-11-30T13:49:54;10.10;99.90
48686;DHT22;34485;51.536;3.816;2022-11-30T13:58:08;9.50;99.90
48686;DHT22;34485;51.536;3.816;2022-11-30T14:05:47;9.40;99.90
48686;DHT22;34485;51.536;3.816;2022-11-30T14:17:02;9.50;99.90
48686;DHT22;34485;51.536;3.816;2022-11-30T14:19:28;9.50;99.90
48686;DHT22;34485;51.536;3.816;2022-11-30T14:21:55;9.50;99.90
48686;DHT22;34485;51.536;3.816;2022-11-30T14:24:22;9.60;99.90
48686;DHT22;34485;51.536;3.816;2022-11-30T14:26:50;9.60;99.90
48686;DHT22;34485;51.536;3.816;2022-11-30T14:29:28;9.60;99.90
48686;DHT22;34485;51.536;3.816;2022-11-30T14:31:58;9.50;99.90
48686;DHT22;34485;51.536;3.816;2022-11-30T14:34:29;9.50;99.90
48686;DHT22;34485;51.536;3.816;2022-11-30T14:37:27;9.30;99.90
48686;DHT22;34485;51.536;3.816;2022-11-30T14:40:04;9.30;99.90
48686;DHT22;34485;51.536;3.816;2022-11-30T14:42:31;9.30;99.90
48686;DHT22;34485;51.536;3.816;2022-11-30T14:44:57;9.40;99.90
48686;DHT22;34485;51.536;3.816;2022-11-30T14:49:52;9.10;99.90
48686;DHT22;34485;51.536;3.816;2022-11-30T14:55:40;9.30;99.90
48686;DHT22;34485;51.536;3.816;2022-11-30T15:00:43;9.20;99.90
48686;DHT22;34485;51.536;3.816;2022-11-30T15:03:29;9.20;99.90
48686;DHT22;34485;51.536;3.816;2022-11-30T15:06:01;9.30;99.90
48686;DHT22;34485;51.536;3.816;2022-11-30T15:08:37;9.20;99.90
48686;DHT22;34485;51.536;3.816;2022-11-30T15:11:05;9.10;99.90
48686;DHT22;34485;51.536;3.816;2022-11-30T15:13:32;9.10;99.90
48686;DHT22;34485;51.536;3.816;2022-11-30T15:15:57;9.10;99.90
48686;DHT22;34485;51.536;3.816;2022-11-30T15:18:24;9.10;99.90
48686;DHT22;34485;51.536;3.816;2022-11-30T15:21:02;9.00;99.90
48686;DHT22;34485;51.536;3.816;2022-11-30T15:23:30;9.00;99.90
48686;DHT22;34485;51.536;3.816;2022-11-30T15:26:00;8.90;99.90
48686;DHT22;34485;51.536;3.816;2022-11-30T15:28:35;8.80;99.90
48686;DHT22;34485;51.536;3.816;2022-11-30T15:31:06;8.80;99.90
48686;DHT22;34485;51.536;3.816;2022-11-30T15:33:39;8.80;99.90
48686;DHT22;34485;51.536;3.816;2022-11-30T15:36:05;8.80;99.90
48686;DHT22;34485;51.536;3.816;2022-11-30T15:38:31;8.80;99.90
48686;DHT22;34485;51.536;3.816;2022-11-30T15:41:02;8.70;99.90
48686;DHT22;34485;51.536;3.816;2022-11-30T15:43:35;8.70;99.90
48686;DHT22;34485;51.536;3.816;2022-11-30T15:46:03;8.70;99.90
48686;DHT22;34485;51.536;3.816;2022-11-30T15:48:36;8.60;99.90
48686;DHT22;34485;51.536;3.816;2022-11-30T15:51:02;8.50;99.90
48686;DHT22;34485;51.536;3.816;2022-11-30T15:53:33;8.40;99.90
48686;DHT22;34485;51.536;3.816;2022-11-30T15:56:03;8.50;99.90
48686;DHT22;34485;51.536;3.816;2022-11-30T15:58:38;8.50;99.90
48686;DHT22;34485;51.536;3.816;2022-11-30T16:06:22;8.60;99.90
48686;DHT22;34485;51.536;3.816;2022-11-30T16:08:49;8.60;99.90
48686;DHT22;34485;51.536;3.816;2022-11-30T16:11:16;8.50;99.90
48686;DHT22;34485;51.536;3.816;2022-11-30T16:13:42;8.40;99.90
48686;DHT22;34485;51.536;3.816;2022-11-30T16:16:12;8.50;99.90
48686;DHT22;34485;51.536;3.816;2022-11-30T16:18:39;8.50;99.90
48686;DHT22;34485;51.536;3.816;2022-11-30T16:21:05;8.40;99.90
48686;DHT22;34485;51.536;3.816;2022-11-30T16:23:34;8.30;99.90
48686;DHT22;34485;51.536;3.816;2022-11-30T16:26:00;8.30;99.90
48686;DHT22;34485;51.536;3.816;2022-11-30T16:28:25;8.20;99.90
48686;DHT22;34485;51.536;3.816;2022-11-30T16:30:52;8.20;99.90
48686;DHT22;34485;51.536;3.816;2022-11-30T16:33:22;8.20;99.90
48686;DHT22;34485;51.536;3.816;2022-11-30T16:35:53;8.20;99.90
48686;DHT22;34485;51.536;3.816;2022-11-30T16:38:20;8.20;99.90
48686;DHT22;34485;51.536;3.816;2022-11-30T16:40:46;8.10;99.90
48686;DHT22;34485;51.536;3.816;2022-11-30T16:43:12;8.10;99.90
48686;DHT22;34485;51.536;3.816;2022-11-30T16:45:39;8.20;99.90
48686;DHT22;34485;51.536;3.816;2022-11-30T16:48:05;8.20;99.90
48686;DHT22;34485;51.536;3.816;2022-11-30T16:50:31;8.30;99.90
48686;DHT22;34485;51.536;3.816;2022-11-30T16:53:00;8.20;99.90
48686;DHT22;34485;51.536;3.816;2022-11-30T16:55:31;8.30;99.90
48686;DHT22;34485;51.536;3.816;2022-11-30T16:57:59;8.20;99.90
48686;DHT22;34485;51.536;3.816;2022-11-30T17:00:25;8.30;99.90
48686;DHT22;34485;51.536;3.816;2022-11-30T17:02:57;8.30;99.90
48686;DHT22;34485;51.536;3.816;2022-11-30T17:05:25;8.30;99.90
48686;DHT22;34485;51.536;3.816;2022-11-30T17:07:51;8.30;99.90
48686;DHT22;34485;51.536;3.816;2022-11-30T17:10:17;8.30;99.90
48686;DHT22;34485;51.536;3.816;2022-11-30T17:12:42;8.30;99.90
48686;DHT22;34485;51.536;3.816;2022-11-30T17:15:20;8.20;99.90
48686;DHT22;34485;51.536;3.816;2022-11-30T17:17:45;8.20;99.90
48686;DHT22;34485;51.536;3.816;2022-11-30T17:20:12;8.30;99.90
48686;DHT22;34485;51.536;3.816;2022-11-30T17:22:38;8.30;99.90
48686;DHT22;34485;51.536;3.816;2022-11-30T17:25:06;8.30;99.90
48686;DHT22;34485;51.536;3.816;2022-11-30T17:27:33;8.20;99.90
48686;DHT22;34485;51.536;3.816;2022-11-30T17:29:58;8.20;99.90
48686;DHT22;34485;51.536;3.816;2022-11-30T17:32:24;8.20;99.90
48686;DHT22;34485;51.536;3.816;2022-11-30T17:34:49;8.10;99.90
48686;DHT22;34485;51.536;3.816;2022-11-30T17:37:15;8.00;99.90
48686;DHT22;34485;51.536;3.816;2022-11-30T17:39:41;8.00;99.90
48686;DHT22;34485;51.536;3.816;2022-11-30T17:42:07;8.00;99.90
48686;DHT22;34485;51.536;3.816;2022-11-30T17:44:33;8.00;99.90
48686;DHT22;34485;51.536;3.816;2022-11-30T17:46:59;7.90;99.90
48686;DHT22;34485;51.536;3.816;2022-11-30T17:49:24;7.80;99.90
48686;DHT22;34485;51.536;3.816;2022-11-30T17:51:50;7.80;99.90
48686;DHT22;34485;51.536;3.816;2022-11-30T17:54:15;7.80;99.90
48686;DHT22;34485;51.536;3.816;2022-11-30T17:56:41;7.60;99.90
48686;DHT22;34485;51.536;3.816;2022-11-30T17:59:08;7.50;99.90
48686;DHT22;34485;51.536;3.816;2022-11-30T18:01:34;7.50;99.90
48686;DHT22;34485;51.536;3.816;2022-11-30T18:04:00;7.40;99.90
48686;DHT22;34485;51.536;3.816;2022-11-30T18:06:26;7.40;99.90
48686;DHT22;34485;51.536;3.816;2022-11-30T18:08:52;7.40;99.90
48686;DHT22;34485;51.536;3.816;2022-11-30T18:11:23;7.40;99.90
48686;DHT22;34485;51.536;3.816;2022-11-30T18:13:49;7.40;99.90
48686;DHT22;34485;51.536;3.816;2022-11-30T18:21:21;7.40;99.90
48686;DHT22;34485;51.536;3.816;2022-11-30T18:28:41;7.50;99.90
48686;DHT22;34485;51.536;3.816;2022-11-30T18:31:07;7.40;99.90
48686;DHT22;34485;51.536;3.816;2022-11-30T18:45:45;7.30;99.90
48686;DHT22;34485;51.536;3.816;2022-11-30T18:48:11;7.40;99.90
48686;DHT22;34485;51.536;3.816;2022-11-30T18:55:29;7.50;99.90
48686;DHT22;34485;51.536;3.816;2022-11-30T18:57:55;7.40;99.90
48686;DHT22;34485;51.536;3.816;2022-11-30T19:00:22;7.40;99.90
48686;DHT22;34485;51.536;3.816;2022-11-30T19:02:48;7.40;99.90
48686;DHT22;34485;51.536;3.816;2022-11-30T19:05:14;7.40;99.90
48686;DHT22;34485;51.536;3.816;2022-11-30T19:08:02;7.40;99.90
48686;DHT22;34485;51.536;3.816;2022-11-30T19:10:31;7.50;99.90
48686;DHT22;34485;51.536;3.816;2022-11-30T19:12:58;7.50;99.90
48686;DHT22;34485;51.536;3.816;2022-11-30T19:15:23;7.50;99.90
48686;DHT22;34485;51.536;3.816;2022-11-30T19:37:18;7.70;99.90
48686;DHT22;34485;51.536;3.816;2022-11-30T19:39:44;7.60;99.90
48686;DHT22;34485;51.536;3.816;2022-11-30T19:42:09;7.50;99.90
48686;DHT22;34485;51.536;3.816;2022-11-30T19:44:35;7.40;99.90
48686;DHT22;34485;51.536;3.816;2022-11-30T19:47:01;7.30;99.90
48686;DHT22;34485;51.536;3.816;2022-11-30T19:49:26;7.20;99.90
48686;DHT22;34485;51.536;3.816;2022-11-30T19:54:18;7.30;99.90
48686;DHT22;34485;51.536;3.816;2022-11-30T19:56:44;7.00;99.90
48686;DHT22;34485;51.536;3.816;2022-11-30T19:59:09;6.90;99.90
48686;DHT22;34485;51.536;3.816;2022-11-30T20:01:35;6.90;99.90
48686;DHT22;34485;51.536;3.816;2022-11-30T20:04:01;6.70;99.90
48686;DHT22;34485;51.536;3.816;2022-11-30T20:06:29;6.60;99.90
48686;DHT22;34485;51.536;3.816;2022-11-30T20:08:55;6.60;99.90
48686;DHT22;34485;51.536;3.816;2022-11-30T20:11:21;6.50;99.90
48686;DHT22;34485;51.536;3.816;2022-11-30T20:13:47;6.40;99.90
48686;DHT22;34485;51.536;3.816;2022-11-30T20:16:17;6.40;99.90
48686;DHT22;34485;51.536;3.816;2022-11-30T20:18:44;6.30;99.90
48686;DHT22;34485;51.536;3.816;2022-11-30T20:21:20;6.20;99.90
48686;DHT22;34485;51.536;3.816;2022-11-30T20:23:46;6.10;99.90
48686;DHT22;34485;51.536;3.816;2022-11-30T20:26:28;6.10;99.90
48686;DHT22;34485;51.536;3.816;2022-11-30T20:38:43;6.10;99.90
48686;DHT22;34485;51.536;3.816;2022-11-30T20:41:14;6.10;99.90
48686;DHT22;34485;51.536;3.816;2022-11-30T20:43:41;5.80;99.90
48686;DHT22;34485;51.536;3.816;2022-11-30T20:46:30;5.70;99.90
48686;DHT22;34485;51.536;3.816;2022-11-30T20:48:57;5.60;99.90
48686;DHT22;34485;51.536;3.816;2022-11-30T20:51:25;5.50;99.90
48686;DHT22;34485;51.536;3.816;2022-11-30T20:53:52;5.50;99.90
48686;DHT22;34485;51.536;3.816;2022-11-30T22:33:57;5.40;99.90
48686;DHT22;34485;51.536;3.816;2022-11-30T22:36:25;5.30;99.90
48686;DHT22;34485;51.536;3.816;2022-11-30T22:38:55;5.20;99.90
48686;DHT22;34485;51.536;3.816;2022-11-30T22:41:21;5.20;99.90
48686;DHT22;34485;51.536;3.816;2022-11-30T22:43:47;5.10;99.90
48686;DHT22;34485;51.536;3.816;2022-11-30T22:46:16;5.10;99.90
48686;DHT22;34485;51.536;3.816;2022-11-30T22:48:42;5.10;99.90
48686;DHT22;34485;51.536;3.816;2022-11-30T22:51:10;5.10;99.90
48686;DHT22;34485;51.536;3.816;2022-11-30T22:53:37;5.00;99.90
48686;DHT22;34485;51.536;3.816;2022-11-30T22:56:08;5.00;99.90
48686;DHT22;34485;51.536;3.816;2022-11-30T22:58:34;4.90;99.90